sensor_id;sensor_type;location;lat;lon;timestamp;pressure;altitude;pressure_sealevel;temperature;humidity
33949;BME280;20229;49.856;19.030;2023-02-13T00:04:53;103707.21;;;1.65;96.99
33949;BME280;20229;49.856;19.030;2023-02-13T00:10:16;103710.12;;;1.73;97.31
33949;BME280;20229;49.856;19.030;2023-02-13T00:15:19;103696.94;;;1.83;97.28
33949;BME280;20229;49.856;19.030;2023-02-13T00:20:41;103695.30;;;1.88;96.98
33949;BME280;20229;49.856;19.030;2023-02-13T00:25:44;103700.09;;;2.00;96.62
33949;BME280;20229;49.856;19.030;2023-02-13T00:31:11;103695.70;;;2.04;96.48
33949;BME280;20229;49.856;19.030;2023-02-13T00:36:19;103703.08;;;2.11;96.47
33949;BME280;20229;49.856;19.030;2023-02-13T00:41:33;103700.37;;;2.09;96.20
33949;BME280;20229;49.856;19.030;2023-02-13T00:46:36;103692.38;;;2.14;96.28
33949;BME280;20229;49.856;19.030;2023-02-13T00:52:00;103689.70;;;2.14;96.20
33949;BME280;20229;49.856;19.030;2023-02-13T00:57:03;103684.39;;;2.17;97.05
33949;BME280;20229;49.856;19.030;2023-02-13T01:02:26;103695.10;;;2.15;96.30
33949;BME280;20229;49.856;19.030;2023-02-13T01:07:29;103688.95;;;2.20;96.47
33949;BME280;20229;49.856;19.030;2023-02-13T01:12:52;103685.35;;;2.19;96.26
33949;BME280;20229;49.856;19.030;2023-02-13T01:17:55;103671.98;;;2.24;96.31
33949;BME280;20229;49.856;19.030;2023-02-13T01:23:18;103659.33;;;2.21;96.20
33949;BME280;20229;49.856;19.030;2023-02-13T01:28:21;103656.79;;;2.27;96.22
33949;BME280;20229;49.856;19.030;2023-02-13T01:33:45;103660.29;;;2.23;96.41
33949;BME280;20229;49.856;19.030;2023-02-13T01:38:52;103653.20;;;2.27;96.65
33949;BME280;20229;49.856;19.030;2023-02-13T01:49:25;103638.02;;;2.30;96.87
33949;BME280;20229;49.856;19.030;2023-02-13T01:54:36;103647.83;;;2.28;96.54
33949;BME280;20229;49.856;19.030;2023-02-13T01:59:47;103633.63;;;2.35;96.11
33949;BME280;20229;49.856;19.030;2023-02-13T02:05:03;103632.70;;;2.33;96.38
33949;BME280;20229;49.856;19.030;2023-02-13T02:10:11;103623.88;;;2.41;96.13
33949;BME280;20229;49.856;19.030;2023-02-13T02:15:28;103650.80;;;2.39;96.03
33949;BME280;20229;49.856;19.030;2023-02-13T02:36:37;103623.27;;;2.54;96.47
33949;BME280;20229;49.856;19.030;2023-02-13T02:52:32;103628.82;;;2.60;96.29
33949;BME280;20229;49.856;19.030;2023-02-13T02:57:43;103625.23;;;2.61;96.77
33949;BME280;20229;49.856;19.030;2023-02-13T03:02:59;103629.04;;;2.69;96.42
33949;BME280;20229;49.856;19.030;2023-02-13T03:08:16;103637.20;;;2.72;96.31
33949;BME280;20229;49.856;19.030;2023-02-13T03:13:38;103629.15;;;2.75;96.22
33949;BME280;20229;49.856;19.030;2023-02-13T03:18:48;103624.72;;;2.77;96.45
33949;BME280;20229;49.856;19.030;2023-02-13T03:24:21;103640.17;;;2.84;96.38
33949;BME280;20229;49.856;19.030;2023-02-13T03:34:55;103650.24;;;2.93;96.52
33949;BME280;20229;49.856;19.030;2023-02-13T03:40:17;103639.50;;;2.95;96.62
33949;BME280;20229;49.856;19.030;2023-02-13T03:45:34;103649.48;;;2.99;96.30
33949;BME280;20229;49.856;19.030;2023-02-13T03:50:51;103639.67;;;3.02;96.98
33949;BME280;20229;49.856;19.030;2023-02-13T03:55:56;103647.84;;;3.05;97.04
33949;BME280;20229;49.856;19.030;2023-02-13T04:01:16;103645.22;;;3.08;97.89
33949;BME280;20229;49.856;19.030;2023-02-13T04:06:29;103647.09;;;3.13;98.17
33949;BME280;20229;49.856;19.030;2023-02-13T04:11:52;103651.72;;;3.18;98.57
33949;BME280;20229;49.856;19.030;2023-02-13T04:17:07;103638.32;;;3.23;98.75
33949;BME280;20229;49.856;19.030;2023-02-13T04:22:05;103637.48;;;3.25;98.51
33949;BME280;20229;49.856;19.030;2023-02-13T04:27:12;103638.46;;;3.30;99.14
33949;BME280;20229;49.856;19.030;2023-02-13T04:32:17;103636.66;;;3.29;99.47
33949;BME280;20229;49.856;19.030;2023-02-13T04:37:20;103643.93;;;3.33;99.29
33949;BME280;20229;49.856;19.030;2023-02-13T04:42:23;103648.45;;;3.34;99.35
33949;BME280;20229;49.856;19.030;2023-02-13T04:47:27;103640.43;;;3.39;99.43
33949;BME280;20229;49.856;19.030;2023-02-13T04:52:30;103642.27;;;3.40;99.45
33949;BME280;20229;49.856;19.030;2023-02-13T04:57:33;103645.95;;;3.44;99.53
33949;BME280;20229;49.856;19.030;2023-02-13T05:02:49;103645.05;;;3.43;99.63
33949;BME280;20229;49.856;19.030;2023-02-13T05:07:54;103642.42;;;3.48;99.61
33949;BME280;20229;49.856;19.030;2023-02-13T05:13:14;103646.02;;;3.48;99.67
33949;BME280;20229;49.856;19.030;2023-02-13T05:18:18;103642.54;;;3.54;99.74
33949;BME280;20229;49.856;19.030;2023-02-13T05:23:40;103635.35;;;3.54;99.85
33949;BME280;20229;49.856;19.030;2023-02-13T05:28:44;103634.55;;;3.60;100.00
33949;BME280;20229;49.856;19.030;2023-02-13T05:34:06;103645.33;;;3.57;100.00
33949;BME280;20229;49.856;19.030;2023-02-13T05:39:09;103635.50;;;3.62;100.00
33949;BME280;20229;49.856;19.030;2023-02-13T05:44:32;103648.94;;;3.59;100.00
33949;BME280;20229;49.856;19.030;2023-02-13T05:49:35;103645.41;;;3.63;100.00
33949;BME280;20229;49.856;19.030;2023-02-13T05:54:58;103643.59;;;3.61;100.00
33949;BME280;20229;49.856;19.030;2023-02-13T06:00:02;103635.56;;;3.65;100.00
33949;BME280;20229;49.856;19.030;2023-02-13T06:05:24;103640.92;;;3.64;100.00
33949;BME280;20229;49.856;19.030;2023-02-13T06:10:27;103627.52;;;3.68;100.00
33949;BME280;20229;49.856;19.030;2023-02-13T06:15:49;103642.82;;;3.68;100.00
33949;BME280;20229;49.856;19.030;2023-02-13T06:20:53;103634.79;;;3.72;100.00
33949;BME280;20229;49.856;19.030;2023-02-13T06:26:15;103649.23;;;3.74;100.00
33949;BME280;20229;49.856;19.030;2023-02-13T06:31:19;103645.75;;;3.81;100.00
33949;BME280;20229;49.856;19.030;2023-02-13T06:36:41;103653.97;;;3.86;100.00
33949;BME280;20229;49.856;19.030;2023-02-13T06:41:44;103649.65;;;3.96;100.00
33949;BME280;20229;49.856;19.030;2023-02-13T06:47:07;103643.36;;;3.97;100.00
33949;BME280;20229;49.856;19.030;2023-02-13T06:52:10;103637.17;;;4.04;100.00
33949;BME280;20229;49.856;19.030;2023-02-13T06:57:35;103634.53;;;4.08;100.00
33949;BME280;20229;49.856;19.030;2023-02-13T07:02:39;103632.08;;;4.22;100.00
33949;BME280;20229;49.856;19.030;2023-02-13T07:07:58;103630.32;;;4.26;100.00
33949;BME280;20229;49.856;19.030;2023-02-13T07:13:02;103630.55;;;4.40;100.00
33949;BME280;20229;49.856;19.030;2023-02-13T07:18:24;103637.93;;;4.50;100.00
33949;BME280;20229;49.856;19.030;2023-02-13T07:23:28;103636.46;;;4.73;100.00
33949;BME280;20229;49.856;19.030;2023-02-13T07:28:51;103640.41;;;4.95;99.69
33949;BME280;20229;49.856;19.030;2023-02-13T07:33:54;103639.66;;;5.09;98.37
33949;BME280;20229;49.856;19.030;2023-02-13T07:39:16;103637.07;;;5.16;97.95
33949;BME280;20229;49.856;19.030;2023-02-13T07:44:21;103649.00;;;5.32;97.11
33949;BME280;20229;49.856;19.030;2023-02-13T07:49:42;103661.70;;;5.36;96.65
33949;BME280;20229;49.856;19.030;2023-02-13T07:54:46;103655.45;;;5.42;96.82
33949;BME280;20229;49.856;19.030;2023-02-13T08:00:09;103654.64;;;5.49;96.34
33949;BME280;20229;49.856;19.030;2023-02-13T08:05:13;103644.97;;;5.75;95.86
33949;BME280;20229;49.856;19.030;2023-02-13T08:10:34;103638.10;;;6.07;95.16
33949;BME280;20229;49.856;19.030;2023-02-13T08:15:49;103632.91;;;6.36;93.95
33949;BME280;20229;49.856;19.030;2023-02-13T08:21:03;103625.78;;;6.50;92.75
33949;BME280;20229;49.856;19.030;2023-02-13T08:26:07;103635.02;;;6.77;91.95
33949;BME280;20229;49.856;19.030;2023-02-13T08:31:26;103631.51;;;6.93;90.85
33949;BME280;20229;49.856;19.030;2023-02-13T08:36:30;103634.29;;;7.10;89.58
33949;BME280;20229;49.856;19.030;2023-02-13T08:41:53;103634.35;;;7.17;88.14
33949;BME280;20229;49.856;19.030;2023-02-13T08:46:56;103637.09;;;7.25;88.09
33949;BME280;20229;49.856;19.030;2023-02-13T08:52:19;103638.95;;;7.40;88.09
33949;BME280;20229;49.856;19.030;2023-02-13T08:57:22;103635.39;;;7.53;86.22
33949;BME280;20229;49.856;19.030;2023-02-13T09:02:44;103644.46;;;7.61;87.24
33949;BME280;20229;49.856;19.030;2023-02-13T09:07:48;103640.91;;;7.85;85.12
33949;BME280;20229;49.856;19.030;2023-02-13T09:13:11;103635.46;;;8.08;84.25
33949;BME280;20229;49.856;19.030;2023-02-13T09:18:14;103630.97;;;8.40;84.04
33949;BME280;20229;49.856;19.030;2023-02-13T09:23:38;103628.25;;;8.46;82.82
33949;BME280;20229;49.856;19.030;2023-02-13T09:28:43;103630.04;;;8.54;82.53
33949;BME280;20229;49.856;19.030;2023-02-13T09:34:09;103631.82;;;8.91;81.25
33949;BME280;20229;49.856;19.030;2023-02-13T09:39:12;103637.17;;;9.14;79.78
33949;BME280;20229;49.856;19.030;2023-02-13T09:44:37;103635.31;;;9.22;79.14
33949;BME280;20229;49.856;19.030;2023-02-13T09:49:49;103619.81;;;9.38;79.42
33949;BME280;20229;49.856;19.030;2023-02-13T09:55:03;103626.05;;;9.60;78.02
33949;BME280;20229;49.856;19.030;2023-02-13T10:05:39;103624.91;;;9.97;75.38
33949;BME280;20229;49.856;19.030;2023-02-13T10:21:20;103609.22;;;10.27;74.64
33949;BME280;20229;49.856;19.030;2023-02-13T10:26:28;103605.60;;;10.22;75.29
33949;BME280;20229;49.856;19.030;2023-02-13T10:31:47;103606.52;;;10.19;75.31
33949;BME280;20229;49.856;19.030;2023-02-13T10:36:52;103600.32;;;10.00;75.86
33949;BME280;20229;49.856;19.030;2023-02-13T10:42:10;103597.63;;;9.94;76.43
33949;BME280;20229;49.856;19.030;2023-02-13T10:47:28;103598.67;;;9.76;75.75
33949;BME280;20229;49.856;19.030;2023-02-13T11:08:27;103564.38;;;9.37;77.30
33949;BME280;20229;49.856;19.030;2023-02-13T11:13:32;103561.59;;;9.43;77.21
33949;BME280;20229;49.856;19.030;2023-02-13T11:18:42;103558.81;;;9.52;77.21
33949;BME280;20229;49.856;19.030;2023-02-13T11:23:50;103563.33;;;9.56;77.47
33949;BME280;20229;49.856;19.030;2023-02-13T11:29:04;103575.21;;;9.51;76.45
33949;BME280;20229;49.856;19.030;2023-02-13T11:34:22;103567.95;;;9.42;77.06
33949;BME280;20229;49.856;19.030;2023-02-13T11:39:26;103579.84;;;9.32;77.92
33949;BME280;20229;49.856;19.030;2023-02-13T11:44:30;103573.53;;;9.21;77.63
33949;BME280;20229;49.856;19.030;2023-02-13T11:49:51;103557.21;;;9.12;79.23
33949;BME280;20229;49.856;19.030;2023-02-13T11:55:05;103548.05;;;9.31;79.62
33949;BME280;20229;49.856;19.030;2023-02-13T12:10:57;103504.08;;;9.77;77.85
33949;BME280;20229;49.856;19.030;2023-02-13T12:16:27;103503.10;;;9.84;77.72
33949;BME280;20229;49.856;19.030;2023-02-13T12:26:32;103502.95;;;10.01;76.90
33949;BME280;20229;49.856;19.030;2023-02-13T12:31:51;103497.61;;;9.90;76.88
33949;BME280;20229;49.856;19.030;2023-02-13T12:58:05;103503.55;;;9.26;81.30
33949;BME280;20229;49.856;19.030;2023-02-13T13:13:51;103516.56;;;8.64;82.82
33949;BME280;20229;49.856;19.030;2023-02-13T13:19:07;103517.47;;;8.61;83.98
33949;BME280;20229;49.856;19.030;2023-02-13T13:29:41;103517.53;;;8.46;84.56
33949;BME280;20229;49.856;19.030;2023-02-13T13:34:40;103513.91;;;8.40;85.59
33949;BME280;20229;49.856;19.030;2023-02-13T13:39:54;103526.60;;;8.36;85.44
33949;BME280;20229;49.856;19.030;2023-02-13T13:50:24;103517.54;;;8.12;86.53
33949;BME280;20229;49.856;19.030;2023-02-13T14:00:43;103523.91;;;7.95;87.56
33949;BME280;20229;49.856;19.030;2023-02-13T14:05:58;103513.06;;;7.85;88.16
33949;BME280;20229;49.856;19.030;2023-02-13T14:11:02;103527.56;;;7.78;87.79
33949;BME280;20229;49.856;19.030;2023-02-13T14:16:10;103525.72;;;7.70;88.68
33949;BME280;20229;49.856;19.030;2023-02-13T14:21:21;103521.20;;;7.72;89.13
33949;BME280;20229;49.856;19.030;2023-02-13T14:26:30;103516.69;;;7.68;88.88
33949;BME280;20229;49.856;19.030;2023-02-13T14:31:36;103525.72;;;7.70;89.20
33949;BME280;20229;49.856;19.030;2023-02-13T14:42:03;103521.19;;;7.47;89.36
33949;BME280;20229;49.856;19.030;2023-02-13T14:52:33;103494.90;;;7.41;89.97
33949;BME280;20229;49.856;19.030;2023-02-13T14:57:53;103506.66;;;7.30;90.51
33949;BME280;20229;49.856;19.030;2023-02-13T15:03:04;103502.10;;;7.24;90.58
33949;BME280;20229;49.856;19.030;2023-02-13T15:08:16;103481.27;;;7.12;90.65
33949;BME280;20229;49.856;19.030;2023-02-13T15:13:32;103498.44;;;7.05;91.08
33949;BME280;20229;49.856;19.030;2023-02-13T15:18:44;103492.09;;;6.94;91.36
33949;BME280;20229;49.856;19.030;2023-02-13T15:23:54;103480.31;;;6.90;91.73
33949;BME280;20229;49.856;19.030;2023-02-13T15:29:16;103481.18;;;6.79;92.32
33949;BME280;20229;49.856;19.030;2023-02-13T15:34:19;103474.83;;;6.75;91.52
33949;BME280;20229;49.856;19.030;2023-02-13T15:39:26;103477.49;;;6.67;92.71
33949;BME280;20229;49.856;19.030;2023-02-13T15:44:33;103490.16;;;6.65;92.53
33949;BME280;20229;49.856;19.030;2023-02-13T15:49:49;103471.12;;;6.56;92.63
33949;BME280;20229;49.856;19.030;2023-02-13T15:54:54;103470.19;;;6.53;92.66
33949;BME280;20229;49.856;19.030;2023-02-13T16:05:33;103478.30;;;6.45;92.95
33949;BME280;20229;49.856;19.030;2023-02-13T16:10:40;103489.10;;;6.34;93.03
33949;BME280;20229;49.856;19.030;2023-02-13T16:15:43;103481.84;;;6.32;93.31
33949;BME280;20229;49.856;19.030;2023-02-13T16:21:06;103502.62;;;6.27;93.23
33949;BME280;20229;49.856;19.030;2023-02-13T16:26:14;103492.69;;;6.27;93.25
33949;BME280;20229;49.856;19.030;2023-02-13T16:31:31;103496.25;;;6.20;93.20
33949;BME280;20229;49.856;19.030;2023-02-13T16:36:34;103499.87;;;6.20;93.09
33949;BME280;20229;49.856;19.030;2023-02-13T16:41:58;103506.16;;;6.13;92.99
33949;BME280;20229;49.856;19.030;2023-02-13T16:47:03;103509.74;;;6.09;92.92
33949;BME280;20229;49.856;19.030;2023-02-13T16:52:24;103514.21;;;6.03;92.92
33949;BME280;20229;49.856;19.030;2023-02-13T16:57:32;103518.70;;;5.99;93.15
33949;BME280;20229;49.856;19.030;2023-02-13T17:02:50;103527.66;;;5.92;93.48
33949;BME280;20229;49.856;19.030;2023-02-13T17:07:55;103518.62;;;5.91;93.43
33949;BME280;20229;49.856;19.030;2023-02-13T17:13:16;103532.12;;;5.85;93.62
33949;BME280;20229;49.856;19.030;2023-02-13T17:18:21;103516.73;;;5.83;93.89
33949;BME280;20229;49.856;19.030;2023-02-13T17:23:42;103504.92;;;5.74;93.80
33949;BME280;20229;49.856;19.030;2023-02-13T17:28:45;103496.78;;;5.74;93.01
33949;BME280;20229;49.856;19.030;2023-02-13T17:34:10;103481.34;;;5.63;93.46
33949;BME280;20229;49.856;19.030;2023-02-13T17:39:14;103480.43;;;5.62;92.88
33949;BME280;20229;49.856;19.030;2023-02-13T17:44:34;103483.08;;;5.56;93.08
33949;BME280;20229;49.856;19.030;2023-02-13T17:49:37;103488.50;;;5.56;93.51
33949;BME280;20229;49.856;19.030;2023-02-13T17:55:00;103481.21;;;5.50;93.54
33949;BME280;20229;49.856;19.030;2023-02-13T18:00:05;103469.47;;;5.50;93.50
33949;BME280;20229;49.856;19.030;2023-02-13T18:05:27;103469.42;;;5.44;93.35
33949;BME280;20229;49.856;19.030;2023-02-13T18:10:33;103469.42;;;5.44;93.45
33949;BME280;20229;49.856;19.030;2023-02-13T18:15:52;103475.71;;;5.38;93.73
33949;BME280;20229;49.856;19.030;2023-02-13T18:20:55;103471.18;;;5.39;93.83
33949;BME280;20229;49.856;19.030;2023-02-13T18:26:18;103493.69;;;5.33;93.82
33949;BME280;20229;49.856;19.030;2023-02-13T18:31:21;103500.05;;;5.37;93.98
33949;BME280;20229;49.856;19.030;2023-02-13T18:36:44;103494.59;;;5.31;94.04
33949;BME280;20229;49.856;19.030;2023-02-13T18:41:48;103487.34;;;5.30;93.60
33949;BME280;20229;49.856;19.030;2023-02-13T18:47:10;103464.73;;;5.26;94.10
33949;BME280;20229;49.856;19.030;2023-02-13T18:52:15;103462.06;;;5.27;94.07
33949;BME280;20229;49.856;19.030;2023-02-13T18:57:36;103482.74;;;5.21;94.40
33949;BME280;20229;49.856;19.030;2023-02-13T19:02:47;103489.98;;;5.22;94.14
33949;BME280;20229;49.856;19.030;2023-02-13T19:08:02;103507.99;;;5.17;94.57
33949;BME280;20229;49.856;19.030;2023-02-13T19:13:08;103503.52;;;5.20;94.60
33949;BME280;20229;49.856;19.030;2023-02-13T19:18:28;103514.30;;;5.17;94.50
33949;BME280;20229;49.856;19.030;2023-02-13T19:23:32;103504.38;;;5.18;94.70
33949;BME280;20229;49.856;19.030;2023-02-13T19:28:57;103525.09;;;5.14;94.49
33949;BME280;20229;49.856;19.030;2023-02-13T19:34:01;103526.05;;;5.16;94.36
33949;BME280;20229;49.856;19.030;2023-02-13T19:39:20;103535.90;;;5.11;94.51
33949;BME280;20229;49.856;19.030;2023-02-13T19:44:24;103528.71;;;5.13;94.33
33949;BME280;20229;49.856;19.030;2023-02-13T19:49:46;103543.12;;;5.09;94.35
33949;BME280;20229;49.856;19.030;2023-02-13T19:54:51;103548.53;;;5.12;94.61
33949;BME280;20229;49.856;19.030;2023-02-13T20:00:14;103546.70;;;5.08;94.26
33949;BME280;20229;49.856;19.030;2023-02-13T20:05:18;103535.90;;;5.11;93.91
33949;BME280;20229;49.856;19.030;2023-02-13T20:10:46;103553.00;;;5.06;93.83
33949;BME280;20229;49.856;19.030;2023-02-13T20:15:49;103546.70;;;5.08;93.96
33949;BME280;20229;49.856;19.030;2023-02-13T20:26:45;103544.88;;;5.06;94.04
33949;BME280;20229;49.856;19.030;2023-02-13T20:31:49;103550.26;;;5.04;94.03
33949;BME280;20229;49.856;19.030;2023-02-13T20:36:52;103552.08;;;5.05;93.78
33949;BME280;20229;49.856;19.030;2023-02-13T20:41:57;103571.87;;;5.01;93.84
33949;BME280;20229;49.856;19.030;2023-02-13T20:47:00;103580.95;;;5.04;93.94
33949;BME280;20229;49.856;19.030;2023-02-13T20:52:23;103582.70;;;5.01;93.98
33949;BME280;20229;49.856;19.030;2023-02-13T20:57:27;103572.78;;;5.01;93.87
33949;BME280;20229;49.856;19.030;2023-02-13T21:02:49;103566.42;;;4.98;93.93
33949;BME280;20229;49.856;19.030;2023-02-13T21:07:53;103565.52;;;4.97;93.95
33949;BME280;20229;49.856;19.030;2023-02-13T21:13:15;103564.56;;;4.94;94.27
33949;BME280;20229;49.856;19.030;2023-02-13T21:18:19;103555.59;;;4.98;94.17
33949;BME280;20229;49.856;19.030;2023-02-13T21:23:41;103561.90;;;4.95;94.30
33949;BME280;20229;49.856;19.030;2023-02-13T21:28:46;103544.77;;;4.98;94.04
33949;BME280;20229;49.856;19.030;2023-02-13T21:34:09;103544.75;;;4.95;94.23
33949;BME280;20229;49.856;19.030;2023-02-13T21:39:14;103533.92;;;4.95;94.48
33949;BME280;20229;49.856;19.030;2023-02-13T21:44:33;103532.05;;;4.91;94.32
33949;BME280;20229;49.856;19.030;2023-02-13T21:49:37;103542.91;;;4.94;94.45
33949;BME280;20229;49.856;19.030;2023-02-13T21:54:59;103538.30;;;4.87;94.27
33949;BME280;20229;49.856;19.030;2023-02-13T22:00:03;103523.91;;;4.91;94.22
33949;BME280;20229;49.856;19.030;2023-02-13T22:05:25;103525.72;;;4.89;94.31
33949;BME280;20229;49.856;19.030;2023-02-13T22:10:29;103511.31;;;4.91;94.09
33949;BME280;20229;49.856;19.030;2023-02-13T22:16:02;103508.57;;;4.90;94.08
33949;BME280;20229;49.856;19.030;2023-02-13T22:21:07;103510.38;;;4.91;93.90
33949;BME280;20229;49.856;19.030;2023-02-13T22:26:22;103519.36;;;4.87;93.79
33949;BME280;20229;49.856;19.030;2023-02-13T22:31:26;103523.91;;;4.91;93.81
33949;BME280;20229;49.856;19.030;2023-02-13T22:36:43;103508.53;;;4.87;93.61
33949;BME280;20229;49.856;19.030;2023-02-13T22:41:46;103517.64;;;4.92;93.32
33949;BME280;20229;49.856;19.030;2023-02-13T22:47:09;103516.70;;;4.90;93.49
33949;BME280;20229;49.856;19.030;2023-02-13T22:52:13;103515.80;;;4.91;93.35
33949;BME280;20229;49.856;19.030;2023-02-13T22:57:36;103510.38;;;4.88;93.49
33949;BME280;20229;49.856;19.030;2023-02-13T23:02:42;103504.10;;;4.92;93.46
33949;BME280;20229;49.856;19.030;2023-02-13T23:08:02;103504.05;;;4.90;93.61
33949;BME280;20229;49.856;19.030;2023-02-13T23:13:06;103510.42;;;4.94;93.66
33949;BME280;20229;49.856;19.030;2023-02-13T23:18:28;103505.91;;;4.91;93.81
33949;BME280;20229;49.856;19.030;2023-02-13T23:23:31;103497.83;;;4.96;93.87
33949;BME280;20229;49.856;19.030;2023-02-13T23:28:54;103499.59;;;4.94;94.19
33949;BME280;20229;49.856;19.030;2023-02-13T23:33:57;103501.44;;;4.95;94.14
33949;BME280;20229;49.856;19.030;2023-02-13T23:39:20;103506.81;;;4.92;94.56
33949;BME280;20229;49.856;19.030;2023-02-13T23:44:26;103498.73;;;4.95;94.87
33949;BME280;20229;49.856;19.030;2023-02-13T23:49:47;103497.78;;;4.93;94.95
33949;BME280;20229;49.856;19.030;2023-02-13T23:54:50;103488.76;;;4.94;94.97
